createdAt,value
2023-07-04T00:01:26.216Z,17.48
2023-07-04T00:03:55.167Z,17.45
2023-07-04T00:06:23.945Z,17.40
2023-07-04T00:08:51.691Z,17.34
2023-07-04T00:11:20.567Z,17.34
2023-07-04T00:13:48.694Z,17.34
2023-07-04T00:16:15.834Z,17.26
2023-07-04T00:18:43.430Z,17.27
2023-07-04T00:21:18.388Z,17.30
2023-07-04T00:23:47.425Z,17.25
2023-07-04T00:26:18.146Z,17.37
2023-07-04T00:28:45.964Z,17.44
2023-07-04T00:31:15.500Z,17.36
2023-07-04T00:33:43.222Z,17.44
2023-07-04T00:36:11.807Z,17.42
2023-07-04T00:38:39.772Z,17.43
2023-07-04T00:41:09.804Z,17.40
2023-07-04T00:43:47.260Z,17.42
2023-07-04T00:46:16.374Z,17.24
2023-07-04T00:48:46.204Z,17.31
2023-07-04T00:51:23.067Z,17.36
2023-07-04T00:53:54.405Z,17.39
2023-07-04T00:56:25.825Z,17.32
2023-07-04T00:58:54.725Z,17.35
2023-07-04T01:01:21.961Z,17.38
2023-07-04T01:03:49.500Z,17.36
2023-07-04T01:06:32.021Z,17.26
2023-07-04T01:09:01.837Z,17.22
2023-07-04T01:11:34.621Z,17.27
2023-07-04T01:14:04.515Z,16.98
2023-07-04T01:16:32.440Z,17.08
2023-07-04T01:18:59.775Z,17.09
2023-07-04T01:21:28.424Z,16.97
2023-07-04T01:23:58.238Z,17.02
2023-07-04T01:26:51.424Z,16.80
2023-07-04T01:29:19.276Z,16.67
2023-07-04T01:31:47.306Z,16.66
2023-07-04T01:34:16.074Z,16.61
2023-07-04T01:36:43.569Z,16.60
2023-07-04T01:39:16.156Z,16.62
2023-07-04T01:41:45.787Z,16.62
2023-07-04T01:44:13.769Z,16.52
2023-07-04T01:46:40.980Z,16.54
2023-07-04T01:49:08.225Z,16.49
2023-07-04T01:51:36.850Z,16.50
2023-07-04T01:54:04.917Z,16.52
2023-07-04T01:56:33.241Z,16.59
2023-07-04T01:59:00.829Z,16.71
2023-07-04T02:01:28.213Z,16.86
2023-07-04T02:03:55.296Z,16.90
2023-07-04T02:06:22.450Z,16.93
2023-07-04T02:08:49.581Z,16.91
2023-07-04T02:11:16.764Z,16.84
2023-07-04T02:13:43.906Z,16.78
2023-07-04T02:16:10.977Z,16.77
2023-07-04T02:18:38.279Z,16.56
2023-07-04T02:21:07.613Z,16.64
2023-07-04T02:23:34.803Z,16.84
2023-07-04T02:26:01.907Z,16.88
2023-07-04T02:28:29.210Z,16.83
2023-07-04T02:30:59.946Z,16.82
2023-07-04T02:33:28.453Z,16.74
2023-07-04T02:35:56.541Z,16.66
2023-07-04T02:38:23.960Z,16.59
2023-07-04T02:40:53.234Z,16.70
2023-07-04T02:43:21.080Z,16.64
2023-07-04T02:45:48.674Z,16.69
2023-07-04T02:48:16.502Z,16.67
2023-07-04T02:50:44.517Z,16.60
2023-07-04T02:53:12.054Z,16.65
2023-07-04T02:55:39.258Z,16.64
2023-07-04T02:58:08.269Z,16.64
2023-07-04T03:00:37.133Z,16.62
2023-07-04T03:03:04.846Z,16.50
2023-07-04T03:05:34.038Z,16.44
2023-07-04T03:08:01.158Z,16.55
2023-07-04T03:10:28.537Z,16.52
2023-07-04T03:12:56.716Z,16.54
2023-07-04T03:15:27.023Z,16.47
2023-07-04T03:17:54.549Z,16.54
2023-07-04T03:20:22.234Z,16.55
2023-07-04T03:22:52.789Z,16.52
2023-07-04T03:25:20.906Z,16.30
2023-07-04T03:27:51.365Z,16.28
2023-07-04T03:30:23.276Z,16.28
2023-07-04T03:32:54.284Z,16.33
2023-07-04T03:35:21.468Z,16.32
2023-07-04T03:37:48.968Z,16.33
2023-07-04T03:40:16.107Z,16.17
2023-07-04T03:42:43.188Z,16.30
2023-07-04T03:45:10.828Z,16.30
2023-07-04T03:47:38.076Z,16.33
2023-07-04T03:50:07.298Z,16.31
2023-07-04T03:52:34.526Z,16.28
2023-07-04T03:55:01.829Z,16.33
2023-07-04T03:57:29.224Z,16.31
2023-07-04T03:59:57.375Z,16.25
2023-07-04T04:02:24.492Z,16.31
2023-07-04T04:04:51.735Z,16.34
2023-07-04T04:07:18.993Z,16.40
2023-07-04T04:09:46.339Z,16.35
2023-07-04T04:12:13.472Z,16.15
2023-07-04T04:14:40.564Z,16.15
2023-07-04T04:17:07.693Z,16.01
2023-07-04T04:19:34.888Z,16.02
2023-07-04T04:22:02.242Z,16.05
2023-07-04T04:24:29.499Z,16.05
2023-07-04T04:26:58.260Z,15.94
2023-07-04T04:29:25.426Z,15.88
2023-07-04T04:31:52.501Z,16.05
2023-07-04T04:34:21.799Z,16.03
2023-07-04T04:36:48.971Z,16.03
2023-07-04T04:39:16.067Z,15.99
2023-07-04T04:41:43.291Z,16.03
2023-07-04T04:44:10.794Z,16.03
2023-07-04T04:46:41.762Z,16.00
2023-07-04T04:49:09.226Z,15.98
2023-07-04T04:51:36.324Z,15.96
2023-07-04T04:54:03.556Z,16.11
2023-07-04T04:56:30.902Z,16.24
2023-07-04T04:58:57.957Z,16.57
2023-07-04T05:01:26.163Z,16.97
2023-07-04T05:03:54.735Z,16.96
2023-07-04T05:06:22.521Z,16.85
2023-07-04T05:08:49.703Z,16.90
2023-07-04T05:11:17.172Z,16.97
2023-07-04T05:13:47.835Z,16.81
2023-07-04T05:16:16.920Z,16.90
2023-07-04T05:18:44.957Z,17.00
2023-07-04T05:21:13.449Z,16.80
2023-07-04T05:23:41.979Z,17.26
2023-07-04T05:26:16.981Z,20.07
2023-07-04T05:28:44.583Z,18.74
2023-07-04T05:31:16.573Z,18.09
2023-07-04T05:33:44.121Z,18.86
2023-07-04T05:36:15.778Z,18.41
2023-07-04T05:38:43.329Z,18.49
2023-07-04T05:41:11.675Z,18.36
2023-07-04T05:43:39.352Z,18.51
2023-07-04T05:46:06.988Z,18.96
2023-07-04T05:48:37.653Z,18.98
2023-07-04T05:51:06.207Z,18.99
2023-07-04T05:53:34.919Z,19.08
2023-07-04T05:56:06.881Z,19.50
2023-07-04T05:58:34.703Z,19.99
2023-07-04T06:01:05.975Z,20.68
2023-07-04T06:03:33.203Z,20.91
2023-07-04T06:06:01.264Z,21.21
2023-07-04T06:08:28.391Z,21.38
2023-07-04T06:10:59.165Z,21.24
2023-07-04T06:13:26.551Z,21.46
2023-07-04T06:15:53.753Z,21.74
2023-07-04T06:18:20.877Z,21.63
2023-07-04T06:20:48.034Z,21.63
2023-07-04T06:23:15.234Z,21.97
2023-07-04T06:25:42.317Z,21.72
2023-07-04T06:28:09.402Z,21.88
2023-07-04T06:30:39.287Z,21.83
2023-07-04T06:33:07.433Z,21.89
2023-07-04T06:35:40.525Z,21.83
2023-07-04T06:38:07.630Z,22.00
2023-07-04T06:40:34.833Z,22.16
2023-07-04T06:43:01.948Z,22.00
2023-07-04T06:45:29.075Z,21.65
2023-07-04T06:47:56.164Z,21.66
2023-07-04T06:50:23.327Z,21.81
2023-07-04T06:52:50.422Z,21.95
2023-07-04T06:55:17.546Z,22.43
2023-07-04T06:57:44.715Z,22.50
2023-07-04T07:00:12.780Z,22.62
2023-07-04T07:02:40.000Z,22.83
2023-07-04T07:05:07.637Z,22.99
2023-07-04T07:07:34.902Z,23.55
2023-07-04T07:10:02.014Z,23.28
2023-07-04T07:12:29.349Z,23.13
2023-07-04T07:14:56.416Z,23.13
2023-07-04T07:17:23.580Z,23.13
2023-07-04T07:19:50.804Z,22.95
2023-07-04T07:22:18.149Z,22.74
2023-07-04T07:24:45.750Z,22.75
2023-07-04T07:27:12.869Z,22.38
2023-07-04T07:29:39.960Z,22.31
2023-07-04T07:32:07.711Z,22.41
2023-07-04T07:34:34.884Z,22.30
2023-07-04T07:37:01.993Z,22.64
2023-07-04T07:39:29.204Z,23.14
2023-07-04T07:41:56.299Z,23.04
2023-07-04T07:44:23.370Z,23.51
2023-07-04T07:46:50.495Z,23.44
2023-07-04T07:49:17.652Z,23.73
2023-07-04T07:51:44.759Z,23.58
2023-07-04T07:54:12.204Z,23.54
2023-07-04T07:56:42.313Z,23.97
2023-07-04T07:59:09.429Z,23.85
2023-07-04T08:01:36.599Z,23.91
2023-07-04T08:04:05.137Z,23.97
2023-07-04T08:06:36.916Z,23.60
2023-07-04T08:09:04.860Z,23.99
2023-07-04T08:11:32.087Z,24.17
2023-07-04T08:13:59.662Z,24.38
2023-07-04T08:16:28.764Z,24.09
2023-07-04T08:18:56.690Z,24.08
2023-07-04T08:21:24.753Z,24.10
2023-07-04T08:23:51.963Z,24.06
2023-07-04T08:26:20.448Z,23.85
2023-07-04T08:28:47.764Z,23.63
2023-07-04T08:31:19.039Z,23.84
2023-07-04T08:33:46.726Z,24.29
2023-07-04T08:36:14.430Z,24.60
2023-07-04T08:38:41.661Z,24.34
2023-07-04T08:41:27.714Z,24.48
2023-07-04T08:43:57.881Z,24.93
2023-07-04T08:46:25.314Z,25.02
2023-07-04T08:48:53.416Z,25.38
2023-07-04T08:51:23.318Z,25.36
2023-07-04T08:53:55.043Z,25.33
2023-07-04T08:56:32.962Z,25.61
2023-07-04T08:59:06.485Z,25.57
2023-07-04T09:01:40.370Z,25.25
2023-07-04T09:04:17.970Z,25.70
2023-07-04T09:06:50.671Z,25.44
2023-07-04T09:09:32.732Z,25.11
2023-07-04T09:11:59.916Z,25.31
2023-07-04T09:14:37.609Z,25.39
2023-07-04T09:17:13.339Z,25.65
2023-07-04T09:19:44.438Z,25.67
2023-07-04T09:22:11.549Z,25.94
2023-07-04T09:24:38.617Z,26.09
2023-07-04T09:27:06.322Z,25.58
2023-07-04T09:29:33.482Z,25.22
2023-07-04T09:32:02.162Z,25.14
2023-07-04T09:34:47.530Z,25.35
2023-07-04T09:37:16.520Z,25.81
2023-07-04T09:39:55.934Z,26.14
2023-07-04T09:42:37.653Z,26.22
2023-07-04T09:45:13.422Z,26.14
2023-07-04T09:47:46.039Z,26.41
2023-07-04T09:50:24.471Z,26.10
2023-07-04T09:53:02.054Z,25.98
2023-07-04T09:55:29.493Z,26.04
2023-07-04T09:58:15.233Z,26.33
2023-07-04T10:00:44.379Z,26.54
2023-07-04T10:03:11.966Z,26.44
2023-07-04T10:05:39.616Z,26.55
2023-07-04T10:08:08.891Z,26.50
2023-07-04T10:10:56.629Z,26.28
2023-07-04T10:13:25.181Z,26.85
2023-07-04T10:15:52.534Z,26.49
2023-07-04T10:18:27.464Z,26.40
2023-07-04T10:20:56.514Z,26.41
2023-07-04T10:23:24.602Z,26.71
2023-07-04T10:25:52.828Z,26.77
2023-07-04T10:28:22.681Z,26.54
2023-07-04T10:30:51.716Z,26.34
2023-07-04T10:33:25.511Z,26.13
2023-07-04T10:35:52.764Z,25.90
2023-07-04T10:38:38.555Z,25.96
2023-07-04T10:41:13.678Z,26.17
2023-07-04T10:43:44.178Z,25.88
2023-07-04T10:46:13.628Z,26.10
2023-07-04T10:48:41.147Z,26.02
2023-07-04T10:51:11.204Z,26.21
2023-07-04T10:53:38.420Z,26.29
2023-07-04T10:56:14.501Z,26.28
2023-07-04T10:58:44.163Z,26.29
2023-07-04T11:01:15.330Z,26.22
2023-07-04T11:03:58.843Z,26.51
2023-07-04T11:06:30.719Z,26.63
2023-07-04T11:08:58.924Z,26.59
2023-07-04T11:11:29.829Z,26.64
2023-07-04T11:14:04.716Z,26.57
2023-07-04T11:16:33.162Z,26.74
2023-07-04T11:19:05.778Z,26.87
2023-07-04T11:21:32.887Z,26.43
2023-07-04T11:24:16.544Z,26.30
2023-07-04T11:26:51.210Z,26.69
2023-07-04T11:29:20.226Z,26.92
2023-07-04T11:32:03.322Z,26.89
2023-07-04T11:34:44.819Z,27.26
2023-07-04T11:37:16.139Z,27.00
2023-07-04T11:39:43.603Z,27.09
2023-07-04T11:42:16.422Z,27.02
2023-07-04T11:44:52.593Z,27.28
2023-07-04T11:47:34.652Z,27.26
2023-07-04T11:50:03.138Z,26.90
2023-07-04T11:52:33.041Z,27.05
2023-07-04T11:55:01.810Z,27.13
2023-07-04T11:57:47.398Z,27.01
2023-07-04T12:00:29.892Z,27.11
2023-07-04T12:02:57.575Z,27.47
2023-07-04T12:05:32.500Z,27.50
2023-07-04T12:08:06.182Z,27.50
2023-07-04T12:10:33.500Z,27.40
2023-07-04T12:13:02.640Z,27.19
2023-07-04T12:15:31.350Z,27.54
2023-07-04T12:18:02.239Z,27.29
2023-07-04T12:20:30.968Z,27.66
2023-07-04T12:22:59.360Z,27.87
2023-07-04T12:25:27.640Z,27.70
2023-07-04T12:27:57.232Z,27.58
2023-07-04T12:30:24.549Z,27.33
2023-07-04T12:32:53.503Z,27.02
2023-07-04T12:35:28.104Z,27.07
2023-07-04T12:37:57.102Z,27.17
2023-07-04T12:40:31.552Z,27.40
2023-07-04T12:44:37.421Z,27.19
2023-07-04T12:50:51.172Z,27.42
2023-07-04T12:53:19.079Z,27.48
2023-07-04T12:55:46.790Z,27.59
2023-07-04T12:58:15.103Z,26.88
2023-07-04T13:00:46.903Z,27.28
2023-07-04T13:03:19.045Z,27.71
2023-07-04T13:05:47.474Z,27.57
2023-07-04T13:08:16.423Z,27.59
2023-07-04T13:10:49.310Z,27.31
2023-07-04T13:13:36.304Z,27.27
2023-07-04T13:16:21.770Z,27.25
2023-07-04T13:18:49.570Z,27.29
2023-07-04T13:21:50.090Z,27.56
2023-07-04T13:27:14.975Z,27.22
2023-07-04T13:34:55.426Z,27.66
2023-07-04T13:37:25.690Z,27.68
2023-07-04T13:39:56.616Z,27.76
2023-07-04T13:42:24.461Z,27.64
2023-07-04T13:47:22.108Z,27.57
2023-07-04T13:49:49.304Z,27.57
2023-07-04T13:52:16.513Z,27.59
2023-07-04T13:54:43.676Z,27.59
2023-07-04T13:57:10.844Z,27.40
2023-07-04T13:59:37.930Z,27.27
2023-07-04T14:07:05.497Z,27.26
2023-07-04T14:09:32.896Z,27.41
2023-07-04T14:12:00.134Z,27.34
2023-07-04T14:22:08.855Z,27.27
2023-07-04T14:24:36.092Z,26.92
2023-07-04T14:27:03.428Z,27.09
2023-07-04T14:29:30.547Z,26.91
2023-07-04T14:31:57.709Z,26.84
2023-07-04T14:34:27.176Z,27.24
2023-07-04T14:36:54.257Z,26.98
2023-07-04T14:39:21.835Z,26.80
2023-07-04T14:44:19.299Z,26.81
2023-07-04T14:46:46.393Z,26.83
2023-07-04T14:49:13.565Z,26.85
2023-07-04T14:51:40.842Z,26.78
2023-07-04T14:54:08.178Z,26.73
2023-07-04T14:56:45.724Z,26.73
2023-07-04T14:59:17.973Z,26.52
2023-07-04T15:01:45.082Z,26.45
2023-07-04T15:04:12.419Z,26.46
2023-07-04T15:06:39.497Z,26.53
2023-07-04T15:09:06.647Z,26.36
2023-07-04T15:11:33.909Z,26.21
2023-07-04T15:14:01.435Z,26.31
2023-07-04T15:16:30.045Z,26.10
2023-07-04T15:18:57.609Z,26.00
2023-07-04T15:21:24.679Z,25.98
2023-07-04T15:23:51.831Z,25.88
2023-07-04T15:26:27.359Z,25.77
2023-07-04T15:28:55.434Z,25.74
2023-07-04T15:31:22.681Z,25.76
2023-07-04T15:33:51.157Z,25.81
2023-07-04T15:36:18.565Z,25.69
2023-07-04T15:38:46.252Z,25.64
2023-07-04T15:41:13.391Z,25.55
2023-07-04T15:43:40.871Z,25.45
2023-07-04T15:46:11.994Z,25.37
2023-07-04T15:48:40.317Z,25.35
2023-07-04T15:51:08.557Z,25.29
2023-07-04T15:53:35.728Z,25.24
2023-07-04T15:56:04.127Z,25.29
2023-07-04T15:58:31.595Z,25.21
2023-07-04T16:00:59.860Z,25.15
2023-07-04T16:03:27.556Z,24.98
2023-07-04T16:05:55.938Z,24.97
2023-07-04T16:08:23.721Z,24.90
2023-07-04T16:10:55.033Z,24.91
2023-07-04T16:13:22.242Z,24.71
2023-07-04T16:15:49.634Z,24.73
2023-07-04T16:18:16.907Z,24.78
2023-07-04T16:20:44.826Z,24.72
2023-07-04T16:23:12.271Z,24.71
2023-07-04T16:25:42.819Z,24.74
2023-07-04T16:28:10.287Z,24.46
2023-07-04T16:30:37.429Z,24.58
2023-07-04T16:33:04.620Z,24.56
2023-07-04T16:35:31.743Z,24.44
2023-07-04T16:37:58.923Z,24.51
2023-07-04T16:40:26.326Z,24.50
2023-07-04T16:42:53.429Z,24.42
2023-07-04T16:45:20.611Z,24.47
2023-07-04T16:47:47.831Z,24.47
2023-07-04T16:50:30.012Z,24.49
2023-07-04T16:53:00.219Z,24.45
2023-07-04T16:55:27.840Z,24.36
2023-07-04T16:57:55.217Z,24.31
2023-07-04T17:00:22.354Z,24.31
2023-07-04T17:02:49.715Z,24.31
2023-07-04T17:05:17.432Z,24.32
2023-07-04T17:07:44.564Z,24.29
2023-07-04T17:10:11.759Z,24.34
2023-07-04T17:12:39.163Z,24.31
2023-07-04T17:15:06.560Z,24.32
2023-07-04T17:17:33.668Z,24.27
2023-07-04T17:20:01.015Z,24.23
2023-07-04T17:22:28.122Z,24.17
2023-07-04T17:25:07.569Z,24.14
2023-07-04T17:27:40.134Z,24.01
2023-07-04T17:30:07.659Z,23.94
2023-07-04T17:32:34.886Z,23.99
2023-07-04T17:35:02.109Z,23.98
2023-07-04T17:37:29.273Z,23.99
2023-07-04T17:39:56.473Z,23.98
2023-07-04T17:42:24.622Z,23.91
2023-07-04T17:44:51.936Z,23.94
2023-07-04T17:47:19.616Z,23.85
2023-07-04T17:49:47.024Z,23.65
2023-07-04T17:52:14.921Z,23.66
2023-07-04T17:54:42.861Z,23.65
2023-07-04T17:57:21.495Z,23.63
2023-07-04T17:59:54.116Z,23.58
2023-07-04T18:02:21.294Z,23.50
2023-07-04T18:04:48.442Z,23.43
2023-07-04T18:07:16.333Z,23.38
2023-07-04T18:09:48.098Z,23.34
2023-07-04T18:12:16.328Z,23.35
2023-07-04T18:14:43.618Z,23.19
2023-07-04T18:17:10.787Z,23.19
2023-07-04T18:19:38.685Z,23.17
2023-07-04T18:22:05.903Z,23.10
2023-07-04T18:24:34.873Z,23.04
2023-07-04T18:27:02.124Z,22.83
2023-07-04T18:29:29.178Z,22.83
2023-07-04T18:31:59.375Z,22.81
2023-07-04T18:34:26.659Z,22.53
2023-07-04T18:36:55.875Z,22.55
2023-07-04T18:39:23.065Z,22.55
2023-07-04T18:41:50.315Z,22.58
2023-07-04T18:44:17.454Z,22.47
2023-07-04T18:46:45.504Z,22.29
2023-07-04T18:49:17.158Z,22.35
2023-07-04T18:51:44.380Z,22.29
2023-07-04T18:54:12.974Z,22.12
2023-07-04T18:56:41.894Z,22.17
2023-07-04T18:59:09.739Z,22.24
2023-07-04T19:01:36.919Z,22.04
2023-07-04T19:04:04.183Z,22.01
2023-07-04T19:06:33.378Z,22.05
2023-07-04T19:09:01.470Z,21.98
2023-07-04T19:11:29.646Z,21.94
2023-07-04T19:14:17.517Z,21.98
2023-07-04T19:16:53.052Z,21.86
2023-07-04T19:19:24.384Z,21.80
2023-07-04T19:21:55.822Z,21.65
2023-07-04T19:24:23.689Z,21.21
2023-07-04T19:26:51.247Z,20.70
2023-07-04T19:29:18.884Z,20.62
2023-07-04T19:31:50.477Z,20.98
2023-07-04T19:34:18.091Z,21.13
2023-07-04T19:36:45.621Z,21.14
2023-07-04T19:39:12.849Z,21.05
2023-07-04T19:41:39.973Z,20.54
2023-07-04T19:44:07.215Z,20.38
2023-07-04T19:46:34.418Z,20.37
2023-07-04T19:49:02.654Z,20.21
2023-07-04T19:51:29.843Z,20.21
2023-07-04T19:53:59.125Z,20.24
2023-07-04T19:56:27.412Z,20.47
2023-07-04T19:58:54.552Z,20.59
2023-07-04T20:01:26.338Z,20.70
2023-07-04T20:03:54.537Z,20.63
2023-07-04T20:06:22.260Z,20.59
2023-07-04T20:08:50.173Z,20.66
2023-07-04T20:11:18.200Z,20.66
2023-07-04T20:13:45.693Z,20.62
2023-07-04T20:16:17.811Z,20.53
2023-07-04T20:18:45.306Z,20.46
2023-07-04T20:21:12.373Z,20.35
2023-07-04T20:23:40.295Z,20.11
2023-07-04T20:26:09.377Z,20.20
2023-07-04T20:28:38.235Z,20.31
2023-07-04T20:31:05.430Z,20.36
2023-07-04T20:33:33.895Z,20.20
2023-07-04T20:36:01.491Z,20.13
2023-07-04T20:38:28.624Z,19.88
2023-07-04T20:41:01.095Z,19.73
2023-07-04T20:43:28.162Z,19.72
2023-07-04T20:45:55.536Z,19.77
2023-07-04T20:48:22.951Z,19.73
2023-07-04T20:50:50.500Z,19.81
2023-07-04T20:53:18.183Z,19.72
2023-07-04T20:55:47.910Z,19.76
2023-07-04T20:58:15.156Z,19.59
2023-07-04T21:00:42.333Z,19.73
2023-07-04T21:03:09.896Z,19.80
2023-07-04T21:05:37.927Z,19.81
2023-07-04T21:08:05.465Z,19.82
2023-07-04T21:10:36.911Z,19.77
2023-07-04T21:13:04.838Z,19.82
2023-07-04T21:15:33.033Z,19.78
2023-07-04T21:18:00.300Z,19.60
2023-07-04T21:20:27.895Z,19.55
2023-07-04T21:22:55.080Z,19.52
2023-07-04T21:25:22.283Z,19.46
2023-07-04T21:27:49.442Z,19.43
2023-07-04T21:30:16.632Z,18.98
2023-07-04T21:32:43.798Z,19.14
2023-07-04T21:35:10.995Z,18.71
2023-07-04T21:37:38.167Z,18.95
2023-07-04T21:40:07.628Z,18.72
2023-07-04T21:42:35.110Z,18.39
2023-07-04T21:45:02.229Z,18.57
2023-07-04T21:47:31.454Z,18.65
2023-07-04T21:49:58.576Z,18.91
2023-07-04T21:52:25.643Z,18.89
2023-07-04T21:54:52.698Z,18.50
2023-07-04T21:57:19.779Z,18.42
2023-07-04T21:59:47.041Z,18.41
2023-07-04T22:02:15.496Z,18.74
2023-07-04T22:04:42.749Z,18.84
2023-07-04T22:07:09.877Z,18.80
2023-07-04T22:09:38.102Z,18.82
2023-07-04T22:12:05.602Z,18.78
2023-07-04T22:14:38.157Z,18.80
2023-07-04T22:17:06.833Z,18.65
2023-07-04T22:19:34.130Z,18.54
2023-07-04T22:22:01.285Z,18.49
2023-07-04T22:24:28.725Z,18.56
2023-07-04T22:26:56.134Z,18.43
2023-07-04T22:29:23.256Z,17.99
2023-07-04T22:31:50.387Z,17.88
2023-07-04T22:34:17.481Z,18.10
2023-07-04T22:36:44.544Z,18.26
2023-07-04T22:39:11.595Z,18.27
2023-07-04T22:41:38.834Z,18.11
2023-07-04T22:44:05.940Z,18.15
2023-07-04T22:46:33.072Z,18.13
2023-07-04T22:49:00.337Z,18.07
2023-07-04T22:51:27.508Z,18.16
2023-07-04T22:53:54.620Z,18.00
2023-07-04T22:56:22.054Z,17.87
2023-07-04T22:58:49.145Z,17.96
2023-07-04T23:01:17.749Z,17.84
2023-07-04T23:03:45.161Z,17.73
2023-07-04T23:06:12.537Z,17.71
2023-07-04T23:08:40.269Z,17.83
2023-07-04T23:11:07.668Z,17.68
2023-07-04T23:13:34.899Z,17.63
2023-07-04T23:16:12.854Z,17.58
2023-07-04T23:18:42.521Z,17.72
2023-07-04T23:21:09.904Z,17.61
2023-07-04T23:23:37.059Z,17.53
2023-07-04T23:26:08.056Z,17.46
2023-07-04T23:28:35.181Z,17.61
2023-07-04T23:31:06.767Z,17.66
2023-07-04T23:33:33.878Z,17.43
2023-07-04T23:36:01.332Z,17.56
2023-07-04T23:38:29.149Z,17.47
2023-07-04T23:40:56.736Z,17.48
2023-07-04T23:43:27.235Z,17.50
2023-07-04T23:45:55.062Z,17.55
2023-07-04T23:48:23.265Z,17.43
2023-07-04T23:50:50.614Z,17.36
2023-07-04T23:53:17.779Z,17.30
2023-07-04T23:55:44.937Z,17.33
2023-07-04T23:58:12.117Z,17.35
